sensor_id;sensor_type;location;lat;lon;timestamp;P1;P2;P0
14880;PMS7003;7533;51.278;12.588;2024-01-16T00:03:38;9.75;8.75;4.00
14880;PMS7003;7533;51.278;12.588;2024-01-16T00:08:41;8.00;5.75;3.50
14880;PMS7003;7533;51.278;12.588;2024-01-16T00:13:45;6.00;5.00;3.00
14880;PMS7003;7533;51.278;12.588;2024-01-16T00:18:48;6.75;6.00;3.00
14880;PMS7003;7533;51.278;12.588;2024-01-16T00:23:51;7.50;6.75;3.50
14880;PMS7003;7533;51.278;12.588;2024-01-16T00:28:55;5.50;5.50;2.25
14880;PMS7003;7533;51.278;12.588;2024-01-16T00:33:58;9.50;8.25;4.50
14880;PMS7003;7533;51.278;12.588;2024-01-16T00:39:01;8.00;7.00;2.75
14880;PMS7003;7533;51.278;12.588;2024-01-16T00:44:06;8.50;6.50;3.50
14880;PMS7003;7533;51.278;12.588;2024-01-16T00:49:11;6.75;5.25;3.00
14880;PMS7003;7533;51.278;12.588;2024-01-16T00:54:14;8.50;7.00;2.75
14880;PMS7003;7533;51.278;12.588;2024-01-16T00:59:22;7.00;6.50;3.75
14880;PMS7003;7533;51.278;12.588;2024-01-16T01:04:26;7.75;7.00;4.00
14880;PMS7003;7533;51.278;12.588;2024-01-16T01:09:29;6.00;6.00;3.00
14880;PMS7003;7533;51.278;12.588;2024-01-16T01:14:35;4.75;4.00;2.00
14880;PMS7003;7533;51.278;12.588;2024-01-16T01:19:39;6.25;5.50;3.00
14880;PMS7003;7533;51.278;12.588;2024-01-16T01:24:41;4.50;4.50;2.50
14880;PMS7003;7533;51.278;12.588;2024-01-16T01:29:46;5.75;4.00;1.75
14880;PMS7003;7533;51.278;12.588;2024-01-16T01:34:49;6.75;5.75;3.00
14880;PMS7003;7533;51.278;12.588;2024-01-16T01:39:52;6.00;5.25;2.25
14880;PMS7003;7533;51.278;12.588;2024-01-16T01:44:56;4.75;4.25;2.00
14880;PMS7003;7533;51.278;12.588;2024-01-16T01:49:59;5.25;5.00;2.00
14880;PMS7003;7533;51.278;12.588;2024-01-16T01:55:02;6.50;5.00;2.50
14880;PMS7003;7533;51.278;12.588;2024-01-16T02:00:11;5.25;5.00;2.00
14880;PMS7003;7533;51.278;12.588;2024-01-16T02:05:15;5.50;5.50;2.75
14880;PMS7003;7533;51.278;12.588;2024-01-16T02:10:18;5.25;5.00;2.25
14880;PMS7003;7533;51.278;12.588;2024-01-16T02:15:24;4.00;3.50;2.00
14880;PMS7003;7533;51.278;12.588;2024-01-16T02:20:27;5.00;3.00;1.75
14880;PMS7003;7533;51.278;12.588;2024-01-16T02:25:32;3.00;3.00;2.00
14880;PMS7003;7533;51.278;12.588;2024-01-16T02:30:36;5.00;3.00;1.00
14880;PMS7003;7533;51.278;12.588;2024-01-16T02:35:39;4.00;4.00;2.00
14880;PMS7003;7533;51.278;12.588;2024-01-16T02:40:43;4.00;3.33;1.67
14880;PMS7003;7533;51.278;12.588;2024-01-16T02:45:46;6.00;5.50;1.50
14880;PMS7003;7533;51.278;12.588;2024-01-16T02:50:49;5.00;3.50;2.00
14880;PMS7003;7533;51.278;12.588;2024-01-16T02:55:53;3.25;3.25;1.75
14880;PMS7003;7533;51.278;12.588;2024-01-16T03:00:56;5.25;3.25;2.00
14880;PMS7003;7533;51.278;12.588;2024-01-16T03:05:59;3.75;3.25;2.00
14880;PMS7003;7533;51.278;12.588;2024-01-16T03:11:04;6.50;4.75;2.00
14880;PMS7003;7533;51.278;12.588;2024-01-16T03:16:07;2.75;2.75;1.00
14880;PMS7003;7533;51.278;12.588;2024-01-16T03:21:10;5.50;4.00;2.50
14880;PMS7003;7533;51.278;12.588;2024-01-16T03:26:15;4.25;2.50;1.00
14880;PMS7003;7533;51.278;12.588;2024-01-16T03:31:19;4.00;2.25;1.25
14880;PMS7003;7533;51.278;12.588;2024-01-16T03:36:22;3.25;2.00;1.50
14880;PMS7003;7533;51.278;12.588;2024-01-16T03:41:27;5.50;3.50;1.00
14880;PMS7003;7533;51.278;12.588;2024-01-16T03:46:30;2.50;2.50;1.00
14880;PMS7003;7533;51.278;12.588;2024-01-16T03:51:32;2.00;2.00;1.00
14880;PMS7003;7533;51.278;12.588;2024-01-16T03:56:37;3.25;2.00;1.00
14880;PMS7003;7533;51.278;12.588;2024-01-16T04:01:40;2.75;2.75;1.00
14880;PMS7003;7533;51.278;12.588;2024-01-16T04:06:44;5.00;3.00;1.00
14880;PMS7003;7533;51.278;12.588;2024-01-16T04:11:51;4.75;3.00;1.00
14880;PMS7003;7533;51.278;12.588;2024-01-16T04:16:54;2.25;1.75;1.00
14880;PMS7003;7533;51.278;12.588;2024-01-16T04:21:57;3.25;2.75;1.00
14880;PMS7003;7533;51.278;12.588;2024-01-16T04:27:01;2.00;2.00;1.00
14880;PMS7003;7533;51.278;12.588;2024-01-16T04:32:04;2.50;2.00;1.50
14880;PMS7003;7533;51.278;12.588;2024-01-16T04:37:07;2.00;2.00;1.00
14880;PMS7003;7533;51.278;12.588;2024-01-16T04:42:11;2.00;2.00;1.00
14880;PMS7003;7533;51.278;12.588;2024-01-16T04:47:15;3.00;1.00;0.00
14880;PMS7003;7533;51.278;12.588;2024-01-16T04:52:18;3.00;3.00;1.00
14880;PMS7003;7533;51.278;12.588;2024-01-16T04:57:23;2.50;2.00;1.00
14880;PMS7003;7533;51.278;12.588;2024-01-16T05:02:26;6.50;3.50;2.00
14880;PMS7003;7533;51.278;12.588;2024-01-16T05:07:29;3.00;2.25;1.00
14880;PMS7003;7533;51.278;12.588;2024-01-16T05:12:33;3.50;3.00;1.50
14880;PMS7003;7533;51.278;12.588;2024-01-16T05:17:36;3.75;2.00;1.00
14880;PMS7003;7533;51.278;12.588;2024-01-16T05:22:39;2.25;2.00;0.50
14880;PMS7003;7533;51.278;12.588;2024-01-16T05:27:45;2.00;2.00;1.00
14880;PMS7003;7533;51.278;12.588;2024-01-16T05:32:48;2.00;2.00;0.00
14880;PMS7003;7533;51.278;12.588;2024-01-16T05:37:51;2.25;2.00;0.50
14880;PMS7003;7533;51.278;12.588;2024-01-16T05:42:55;1.25;1.25;1.00
14880;PMS7003;7533;51.278;12.588;2024-01-16T05:47:58;3.00;2.00;1.00
14880;PMS7003;7533;51.278;12.588;2024-01-16T05:53:01;1.75;1.75;1.00
14880;PMS7003;7533;51.278;12.588;2024-01-16T05:58:06;2.75;2.75;1.00
14880;PMS7003;7533;51.278;12.588;2024-01-16T06:03:14;2.00;1.75;0.50
14880;PMS7003;7533;51.278;12.588;2024-01-16T06:08:17;3.50;3.00;0.25
14880;PMS7003;7533;51.278;12.588;2024-01-16T06:13:21;2.00;2.00;1.00
14880;PMS7003;7533;51.278;12.588;2024-01-16T06:18:24;3.00;1.25;0.50
14880;PMS7003;7533;51.278;12.588;2024-01-16T06:23:27;3.00;2.75;0.00
14880;PMS7003;7533;51.278;12.588;2024-01-16T06:28:32;1.00;1.00;0.00
14880;PMS7003;7533;51.278;12.588;2024-01-16T06:33:35;2.00;2.00;1.00
14880;PMS7003;7533;51.278;12.588;2024-01-16T06:38:38;1.50;1.50;0.25
14880;PMS7003;7533;51.278;12.588;2024-01-16T06:43:43;2.50;2.25;0.50
14880;PMS7003;7533;51.278;12.588;2024-01-16T06:48:46;3.00;2.75;0.75
14880;PMS7003;7533;51.278;12.588;2024-01-16T06:53:50;1.25;1.25;1.00
14880;PMS7003;7533;51.278;12.588;2024-01-16T06:58:54;3.00;3.00;1.50
14880;PMS7003;7533;51.278;12.588;2024-01-16T07:03:57;3.50;2.00;0.75
14880;PMS7003;7533;51.278;12.588;2024-01-16T07:09:00;1.25;1.25;0.25
14880;PMS7003;7533;51.278;12.588;2024-01-16T07:14:06;1.25;1.00;0.25
14880;PMS7003;7533;51.278;12.588;2024-01-16T07:19:09;3.00;3.00;1.00
14880;PMS7003;7533;51.278;12.588;2024-01-16T07:24:13;1.50;1.00;0.25
14880;PMS7003;7533;51.278;12.588;2024-01-16T07:29:17;2.25;2.25;0.50
14880;PMS7003;7533;51.278;12.588;2024-01-16T07:34:21;2.50;2.00;0.00
14880;PMS7003;7533;51.278;12.588;2024-01-16T07:39:24;1.75;1.75;1.00
14880;PMS7003;7533;51.278;12.588;2024-01-16T07:44:28;1.25;1.25;0.50
14880;PMS7003;7533;51.278;12.588;2024-01-16T07:49:31;2.00;1.00;0.00
14880;PMS7003;7533;51.278;12.588;2024-01-16T07:54:34;1.75;1.75;0.00
14880;PMS7003;7533;51.278;12.588;2024-01-16T07:59:38;2.00;1.00;0.00
14880;PMS7003;7533;51.278;12.588;2024-01-16T08:04:42;3.00;2.00;1.00
14880;PMS7003;7533;51.278;12.588;2024-01-16T08:09:45;2.50;2.25;1.00
14880;PMS7003;7533;51.278;12.588;2024-01-16T08:14:49;1.00;1.00;0.00
14880;PMS7003;7533;51.278;12.588;2024-01-16T08:19:52;1.50;1.50;0.00
14880;PMS7003;7533;51.278;12.588;2024-01-16T08:24:55;3.00;2.00;0.25
14880;PMS7003;7533;51.278;12.588;2024-01-16T08:29:59;2.00;2.00;0.00
14880;PMS7003;7533;51.278;12.588;2024-01-16T08:35:03;2.00;2.00;0.00
14880;PMS7003;7533;51.278;12.588;2024-01-16T08:40:07;1.00;1.00;0.00
14880;PMS7003;7533;51.278;12.588;2024-01-16T08:45:11;2.00;2.00;0.00
14880;PMS7003;7533;51.278;12.588;2024-01-16T08:50:14;3.25;2.00;1.00
14880;PMS7003;7533;51.278;12.588;2024-01-16T08:55:17;4.00;3.25;1.00
14880;PMS7003;7533;51.278;12.588;2024-01-16T09:00:21;0.50;0.00;0.00
14880;PMS7003;7533;51.278;12.588;2024-01-16T09:05:24;1.75;1.75;1.00
14880;PMS7003;7533;51.278;12.588;2024-01-16T09:10:27;1.00;1.00;0.00
14880;PMS7003;7533;51.278;12.588;2024-01-16T09:15:32;2.25;2.00;0.00
14880;PMS7003;7533;51.278;12.588;2024-01-16T09:20:36;2.75;2.00;1.00
14880;PMS7003;7533;51.278;12.588;2024-01-16T09:25:39;1.00;1.00;1.00
14880;PMS7003;7533;51.278;12.588;2024-01-16T09:30:44;2.50;1.25;0.50
14880;PMS7003;7533;51.278;12.588;2024-01-16T09:35:47;0.75;0.75;0.25
14880;PMS7003;7533;51.278;12.588;2024-01-16T09:40:50;1.00;1.00;0.75
14880;PMS7003;7533;51.278;12.588;2024-01-16T09:46:00;1.50;1.50;1.00
14880;PMS7003;7533;51.278;12.588;2024-01-16T09:51:04;1.00;1.00;0.00
14880;PMS7003;7533;51.278;12.588;2024-01-16T09:56:10;1.50;1.00;0.00
14880;PMS7003;7533;51.278;12.588;2024-01-16T10:01:18;1.00;1.00;0.00
14880;PMS7003;7533;51.278;12.588;2024-01-16T10:06:22;1.50;1.50;0.75
14880;PMS7003;7533;51.278;12.588;2024-01-16T10:11:27;2.75;1.00;1.00
14880;PMS7003;7533;51.278;12.588;2024-01-16T10:22:04;3.25;1.00;0.00
14880;PMS7003;7533;51.278;12.588;2024-01-16T10:27:08;2.50;2.00;1.00
14880;PMS7003;7533;51.278;12.588;2024-01-16T10:32:12;1.00;1.00;0.50
14880;PMS7003;7533;51.278;12.588;2024-01-16T10:37:15;1.75;1.00;0.00
14880;PMS7003;7533;51.278;12.588;2024-01-16T10:42:18;1.25;1.25;0.00
14880;PMS7003;7533;51.278;12.588;2024-01-16T10:47:23;1.00;1.00;0.00
14880;PMS7003;7533;51.278;12.588;2024-01-16T10:52:27;1.00;1.00;1.00
14880;PMS7003;7533;51.278;12.588;2024-01-16T10:57:31;1.00;1.00;0.00
14880;PMS7003;7533;51.278;12.588;2024-01-16T11:02:38;1.00;1.00;0.00
14880;PMS7003;7533;51.278;12.588;2024-01-16T11:07:46;1.50;1.00;0.00
14880;PMS7003;7533;51.278;12.588;2024-01-16T11:12:50;2.00;1.00;0.00
14880;PMS7003;7533;51.278;12.588;2024-01-16T11:17:56;0.00;0.00;0.00
14880;PMS7003;7533;51.278;12.588;2024-01-16T11:22:59;2.00;2.00;0.25
14880;PMS7003;7533;51.278;12.588;2024-01-16T11:28:09;1.00;1.00;0.75
14880;PMS7003;7533;51.278;12.588;2024-01-16T11:38:47;1.00;0.75;0.00
14880;PMS7003;7533;51.278;12.588;2024-01-16T11:43:57;3.00;1.50;0.00
14880;PMS7003;7533;51.278;12.588;2024-01-16T11:49:02;0.25;0.25;0.00
14880;PMS7003;7533;51.278;12.588;2024-01-16T11:54:07;2.00;1.00;0.00
14880;PMS7003;7533;51.278;12.588;2024-01-16T11:59:16;1.25;1.00;0.00
14880;PMS7003;7533;51.278;12.588;2024-01-16T12:04:40;3.25;1.50;0.00
14880;PMS7003;7533;51.278;12.588;2024-01-16T12:09:43;1.00;1.00;0.00
14880;PMS7003;7533;51.278;12.588;2024-01-16T12:14:52;2.00;0.00;0.00
14880;PMS7003;7533;51.278;12.588;2024-01-16T12:19:57;1.75;1.00;0.00
14880;PMS7003;7533;51.278;12.588;2024-01-16T12:25:00;1.25;1.25;0.50
14880;PMS7003;7533;51.278;12.588;2024-01-16T12:30:06;1.50;1.25;0.00
14880;PMS7003;7533;51.278;12.588;2024-01-16T12:35:11;1.00;1.00;0.00
14880;PMS7003;7533;51.278;12.588;2024-01-16T12:40:15;0.00;0.00;0.00
14880;PMS7003;7533;51.278;12.588;2024-01-16T12:45:18;0.50;0.50;0.00
14880;PMS7003;7533;51.278;12.588;2024-01-16T12:50:24;0.50;0.00;0.00
14880;PMS7003;7533;51.278;12.588;2024-01-16T12:55:28;8.75;8.25;5.75
14880;PMS7003;7533;51.278;12.588;2024-01-16T13:00:31;6.75;6.75;3.00
14880;PMS7003;7533;51.278;12.588;2024-01-16T13:05:35;8.00;7.00;4.00
14880;PMS7003;7533;51.278;12.588;2024-01-16T13:10:38;5.00;5.00;3.00
14880;PMS7003;7533;51.278;12.588;2024-01-16T13:15:41;4.75;3.25;2.00
14880;PMS7003;7533;51.278;12.588;2024-01-16T13:20:47;9.50;8.00;5.25
14880;PMS7003;7533;51.278;12.588;2024-01-16T13:25:50;66.40;49.00;29.40
14880;PMS7003;7533;51.278;12.588;2024-01-16T13:30:53;101.00;85.20;43.80
14880;PMS7003;7533;51.278;12.588;2024-01-16T13:35:58;160.20;128.60;62.00
14880;PMS7003;7533;51.278;12.588;2024-01-16T13:41:01;214.80;172.40;85.00
14880;PMS7003;7533;51.278;12.588;2024-01-16T13:46:04;265.33;210.33;98.00
14880;PMS7003;7533;51.278;12.588;2024-01-16T13:51:11;313.75;252.50;114.00
14880;PMS7003;7533;51.278;12.588;2024-01-16T13:56:13;315.67;246.00;112.67
14880;PMS7003;7533;51.278;12.588;2024-01-16T14:01:21;275.20;223.00;100.40
14880;PMS7003;7533;51.278;12.588;2024-01-16T14:06:26;265.25;206.50;93.50
14880;PMS7003;7533;51.278;12.588;2024-01-16T14:11:48;238.80;188.20;86.80
14880;PMS7003;7533;51.278;12.588;2024-01-16T14:16:52;238.60;189.00;83.20
14880;PMS7003;7533;51.278;12.588;2024-01-16T14:22:03;210.40;165.00;74.20
14880;PMS7003;7533;51.278;12.588;2024-01-16T14:27:06;188.40;154.20;74.60
14880;PMS7003;7533;51.278;12.588;2024-01-16T14:32:12;183.60;151.60;71.00
14880;PMS7003;7533;51.278;12.588;2024-01-16T14:37:16;174.40;141.20;66.60
14880;PMS7003;7533;51.278;12.588;2024-01-16T14:42:19;170.20;139.20;63.40
14880;PMS7003;7533;51.278;12.588;2024-01-16T14:47:27;170.00;138.00;64.80
14880;PMS7003;7533;51.278;12.588;2024-01-16T14:52:35;165.20;138.40;62.40
14880;PMS7003;7533;51.278;12.588;2024-01-16T14:57:40;158.40;128.80;59.40
14880;PMS7003;7533;51.278;12.588;2024-01-16T15:02:46;157.20;126.00;58.80
14880;PMS7003;7533;51.278;12.588;2024-01-16T15:07:53;157.40;125.40;60.00
14880;PMS7003;7533;51.278;12.588;2024-01-16T15:12:59;145.40;120.20;56.80
14880;PMS7003;7533;51.278;12.588;2024-01-16T15:18:04;132.60;113.60;56.20
14880;PMS7003;7533;51.278;12.588;2024-01-16T15:23:12;148.40;113.60;54.80
14880;PMS7003;7533;51.278;12.588;2024-01-16T15:28:16;143.40;119.80;55.60
14880;PMS7003;7533;51.278;12.588;2024-01-16T15:33:20;135.00;112.20;52.40
14880;PMS7003;7533;51.278;12.588;2024-01-16T15:38:25;135.60;112.20;55.00
14880;PMS7003;7533;51.278;12.588;2024-01-16T15:43:28;140.00;113.40;51.80
14880;PMS7003;7533;51.278;12.588;2024-01-16T15:48:31;137.80;106.80;51.40
14880;PMS7003;7533;51.278;12.588;2024-01-16T15:53:37;134.20;107.60;49.80
14880;PMS7003;7533;51.278;12.588;2024-01-16T15:58:41;130.60;106.40;50.20
14880;PMS7003;7533;51.278;12.588;2024-01-16T16:03:47;118.00;99.60;49.40
14880;PMS7003;7533;51.278;12.588;2024-01-16T16:08:52;128.60;108.20;49.20
14880;PMS7003;7533;51.278;12.588;2024-01-16T16:13:55;119.00;99.20;48.20
14880;PMS7003;7533;51.278;12.588;2024-01-16T16:18:58;117.80;100.80;46.80
14880;PMS7003;7533;51.278;12.588;2024-01-16T16:24:04;117.80;100.60;46.60
14880;PMS7003;7533;51.278;12.588;2024-01-16T16:29:08;121.50;97.25;45.25
14880;PMS7003;7533;51.278;12.588;2024-01-16T16:34:12;119.00;95.00;45.40
14880;PMS7003;7533;51.278;12.588;2024-01-16T16:39:19;104.40;89.00;42.60
14880;PMS7003;7533;51.278;12.588;2024-01-16T16:44:23;114.00;91.00;43.80
14880;PMS7003;7533;51.278;12.588;2024-01-16T16:49:27;114.60;91.80;43.80
14880;PMS7003;7533;51.278;12.588;2024-01-16T16:54:32;105.60;87.40;41.60
14880;PMS7003;7533;51.278;12.588;2024-01-16T16:59:35;107.20;89.00;44.60
14880;PMS7003;7533;51.278;12.588;2024-01-16T17:04:38;104.00;83.20;42.20
14880;PMS7003;7533;51.278;12.588;2024-01-16T17:09:44;98.40;81.80;41.20
14880;PMS7003;7533;51.278;12.588;2024-01-16T17:14:47;107.80;88.80;41.60
14880;PMS7003;7533;51.278;12.588;2024-01-16T17:19:53;93.80;81.00;38.80
14880;PMS7003;7533;51.278;12.588;2024-01-16T17:24:57;94.20;79.80;39.60
14880;PMS7003;7533;51.278;12.588;2024-01-16T17:30:00;94.00;76.20;38.80
14880;PMS7003;7533;51.278;12.588;2024-01-16T17:35:03;87.20;71.80;36.40
14880;PMS7003;7533;51.278;12.588;2024-01-16T17:40:09;85.20;67.60;34.60
14880;PMS7003;7533;51.278;12.588;2024-01-16T17:45:14;91.20;71.80;36.00
14880;PMS7003;7533;51.278;12.588;2024-01-16T17:50:17;83.00;69.60;34.80
14880;PMS7003;7533;51.278;12.588;2024-01-16T17:55:21;86.00;71.00;33.20
14880;PMS7003;7533;51.278;12.588;2024-01-16T18:00:24;77.20;62.60;31.40
14880;PMS7003;7533;51.278;12.588;2024-01-16T18:05:29;78.20;62.00;32.00
14880;PMS7003;7533;51.278;12.588;2024-01-16T18:10:35;73.00;58.80;31.40
14880;PMS7003;7533;51.278;12.588;2024-01-16T18:15:38;73.40;58.60;31.20
14880;PMS7003;7533;51.278;12.588;2024-01-16T18:20:42;72.80;57.80;30.60
14880;PMS7003;7533;51.278;12.588;2024-01-16T18:25:47;67.60;52.40;29.20
14880;PMS7003;7533;51.278;12.588;2024-01-16T18:30:49;66.00;50.60;29.00
14880;PMS7003;7533;51.278;12.588;2024-01-16T18:35:53;67.80;49.00;28.00
14880;PMS7003;7533;51.278;12.588;2024-01-16T18:41:03;64.60;48.80;27.00
14880;PMS7003;7533;51.278;12.588;2024-01-16T18:46:10;55.80;42.60;25.80
14880;PMS7003;7533;51.278;12.588;2024-01-16T18:51:17;58.80;45.00;26.20
14880;PMS7003;7533;51.278;12.588;2024-01-16T18:56:22;60.80;44.20;24.40
14880;PMS7003;7533;51.278;12.588;2024-01-16T19:01:25;58.60;41.60;24.00
14880;PMS7003;7533;51.278;12.588;2024-01-16T19:06:30;53.40;40.40;25.20
14880;PMS7003;7533;51.278;12.588;2024-01-16T19:11:34;54.60;41.60;23.00
14880;PMS7003;7533;51.278;12.588;2024-01-16T19:16:38;58.00;43.60;24.20
14880;PMS7003;7533;51.278;12.588;2024-01-16T19:21:41;55.40;41.00;22.60
14880;PMS7003;7533;51.278;12.588;2024-01-16T19:26:49;52.60;42.00;24.20
14880;PMS7003;7533;51.278;12.588;2024-01-16T19:31:52;52.20;39.20;22.20
14880;PMS7003;7533;51.278;12.588;2024-01-16T19:36:55;47.80;38.00;20.20
14880;PMS7003;7533;51.278;12.588;2024-01-16T19:42:01;47.00;34.80;20.20
14880;PMS7003;7533;51.278;12.588;2024-01-16T19:47:05;47.00;37.20;21.40
14880;PMS7003;7533;51.278;12.588;2024-01-16T19:52:09;46.60;37.00;20.80
14880;PMS7003;7533;51.278;12.588;2024-01-16T19:57:14;47.60;35.00;19.80
14880;PMS7003;7533;51.278;12.588;2024-01-16T20:02:17;43.60;32.00;19.20
14880;PMS7003;7533;51.278;12.588;2024-01-16T20:07:23;43.80;32.40;19.40
14880;PMS7003;7533;51.278;12.588;2024-01-16T20:12:28;42.40;33.80;20.20
14880;PMS7003;7533;51.278;12.588;2024-01-16T20:17:41;41.60;30.60;18.20
14880;PMS7003;7533;51.278;12.588;2024-01-16T20:22:45;45.80;33.40;18.80
14880;PMS7003;7533;51.278;12.588;2024-01-16T20:27:50;43.80;32.00;19.00
14880;PMS7003;7533;51.278;12.588;2024-01-16T20:32:54;39.20;31.00;17.40
14880;PMS7003;7533;51.278;12.588;2024-01-16T20:37:58;39.00;30.40;18.60
14880;PMS7003;7533;51.278;12.588;2024-01-16T20:43:02;31.80;26.60;16.80
14880;PMS7003;7533;51.278;12.588;2024-01-16T20:48:05;33.00;28.20;15.40
14880;PMS7003;7533;51.278;12.588;2024-01-16T20:53:08;32.40;25.80;14.00
14880;PMS7003;7533;51.278;12.588;2024-01-16T20:58:13;34.20;27.40;13.40
14880;PMS7003;7533;51.278;12.588;2024-01-16T21:03:19;31.20;28.00;16.00
14880;PMS7003;7533;51.278;12.588;2024-01-16T21:09:01;30.40;28.20;13.20
14880;PMS7003;7533;51.278;12.588;2024-01-16T21:14:05;30.80;26.40;14.40
14880;PMS7003;7533;51.278;12.588;2024-01-16T21:19:08;31.40;25.40;14.00
14880;PMS7003;7533;51.278;12.588;2024-01-16T21:24:14;27.00;21.20;13.00
14880;PMS7003;7533;51.278;12.588;2024-01-16T21:29:19;32.80;24.60;14.00
14880;PMS7003;7533;51.278;12.588;2024-01-16T21:34:24;27.00;23.60;13.00
14880;PMS7003;7533;51.278;12.588;2024-01-16T21:39:28;28.40;22.60;12.20
14880;PMS7003;7533;51.278;12.588;2024-01-16T21:44:33;27.40;20.40;12.60
14880;PMS7003;7533;51.278;12.588;2024-01-16T21:49:35;26.40;23.80;12.80
14880;PMS7003;7533;51.278;12.588;2024-01-16T21:54:38;28.00;25.00;12.20
14880;PMS7003;7533;51.278;12.588;2024-01-16T21:59:43;29.40;24.40;12.20
14880;PMS7003;7533;51.278;12.588;2024-01-16T22:04:46;24.20;21.20;12.00
14880;PMS7003;7533;51.278;12.588;2024-01-16T22:09:49;28.80;24.60;12.00
14880;PMS7003;7533;51.278;12.588;2024-01-16T22:14:54;26.00;22.40;12.80
14880;PMS7003;7533;51.278;12.588;2024-01-16T22:19:57;25.60;22.20;11.80
14880;PMS7003;7533;51.278;12.588;2024-01-16T22:25:00;26.00;23.20;11.00
14880;PMS7003;7533;51.278;12.588;2024-01-16T22:30:05;25.80;22.00;12.00
14880;PMS7003;7533;51.278;12.588;2024-01-16T22:35:11;23.00;19.75;11.50
14880;PMS7003;7533;51.278;12.588;2024-01-16T22:40:14;23.00;20.40;12.00
14880;PMS7003;7533;51.278;12.588;2024-01-16T22:45:19;24.60;21.40;12.00
14880;PMS7003;7533;51.278;12.588;2024-01-16T22:50:21;21.00;19.40;10.20
14880;PMS7003;7533;51.278;12.588;2024-01-16T22:55:25;28.60;23.20;11.00
14880;PMS7003;7533;51.278;12.588;2024-01-16T23:00:29;24.40;20.80;12.60
14880;PMS7003;7533;51.278;12.588;2024-01-16T23:05:33;23.75;20.75;10.00
14880;PMS7003;7533;51.278;12.588;2024-01-16T23:10:36;22.80;17.80;9.40
14880;PMS7003;7533;51.278;12.588;2024-01-16T23:15:40;21.20;19.60;10.00
14880;PMS7003;7533;51.278;12.588;2024-01-16T23:20:43;22.75;19.75;10.00
14880;PMS7003;7533;51.278;12.588;2024-01-16T23:25:46;22.75;18.00;10.25
14880;PMS7003;7533;51.278;12.588;2024-01-16T23:30:51;21.75;17.50;10.75
14880;PMS7003;7533;51.278;12.588;2024-01-16T23:35:54;21.75;18.75;9.50
14880;PMS7003;7533;51.278;12.588;2024-01-16T23:40:58;18.00;17.50;9.25
14880;PMS7003;7533;51.278;12.588;2024-01-16T23:46:03;19.00;18.00;10.50
14880;PMS7003;7533;51.278;12.588;2024-01-16T23:51:08;21.75;19.00;10.00
14880;PMS7003;7533;51.278;12.588;2024-01-16T23:56:11;23.25;21.25;10.25
